createdAt,value
2018-06-27T00:00:06.498Z,60.42
2018-06-27T00:01:06.505Z,60.81
2018-06-27T00:02:06.480Z,61.10
2018-06-27T00:03:06.437Z,61.97
2018-06-27T00:04:06.415Z,61.97
2018-06-27T00:05:06.393Z,62.06
2018-06-27T00:06:06.397Z,62.64
2018-06-27T00:07:06.351Z,62.45
2018-06-27T00:08:06.366Z,62.45
2018-06-27T00:09:06.310Z,61.97
2018-06-27T00:10:06.282Z,61.00
2018-06-27T00:11:06.276Z,60.33
2018-06-27T00:12:06.247Z,60.33
2018-06-27T00:13:06.221Z,60.33
2018-06-27T00:14:06.207Z,61.49
2018-06-27T00:15:06.176Z,61.68
2018-06-27T00:16:06.186Z,62.06
2018-06-27T00:17:06.164Z,62.35
2018-06-27T00:18:06.121Z,61.97
2018-06-27T00:19:06.094Z,61.87
2018-06-27T00:20:06.072Z,61.77
2018-06-27T00:21:06.079Z,61.97
2018-06-27T00:22:06.033Z,62.35
2018-06-27T00:23:06.021Z,61.68
2018-06-27T00:24:05.985Z,62.16
2018-06-27T00:25:05.964Z,61.87
2018-06-27T00:26:05.971Z,62.64
2018-06-27T00:27:05.935Z,63.31
2018-06-27T00:28:05.925Z,65.11
2018-06-27T00:29:05.883Z,66.27
2018-06-27T00:30:05.883Z,67.03
2018-06-27T00:31:05.862Z,66.07
2018-06-27T00:32:05.816Z,66.17
2018-06-27T00:33:05.790Z,66.94
2018-06-27T00:34:05.775Z,65.59
2018-06-27T00:35:05.778Z,65.88
2018-06-27T00:36:05.731Z,65.78
2018-06-27T00:37:05.704Z,65.20
2018-06-27T00:38:05.712Z,64.82
2018-06-27T00:39:05.696Z,64.82
2018-06-27T00:40:05.667Z,64.56
2018-06-27T00:41:05.632Z,64.37
2018-06-27T00:42:05.601Z,64.34
2018-06-27T00:43:05.577Z,64.25
2018-06-27T00:44:05.558Z,64.28
2018-06-27T00:45:05.533Z,63.79
2018-06-27T00:46:05.539Z,63.70
2018-06-27T00:47:05.524Z,63.70
2018-06-27T00:48:05.479Z,64.08
2018-06-27T00:49:05.459Z,63.70
2018-06-27T00:50:05.439Z,63.31
2018-06-27T00:51:05.413Z,63.89
2018-06-27T00:52:05.397Z,63.51
2018-06-27T00:53:05.386Z,63.51
2018-06-27T00:54:05.368Z,62.87
2018-06-27T00:55:05.321Z,62.87
2018-06-27T00:56:05.306Z,63.44
2018-06-27T00:57:05.280Z,63.82
2018-06-27T00:58:05.253Z,63.44
2018-06-27T00:59:05.232Z,63.54
2018-06-27T01:00:05.212Z,63.34
2018-06-27T01:01:05.205Z,63.41
2018-06-27T01:02:05.188Z,63.70
2018-06-27T01:03:05.149Z,64.56
2018-06-27T01:04:05.126Z,65.05
2018-06-27T01:05:05.108Z,65.72
2018-06-27T01:06:05.078Z,65.72
2018-06-27T01:07:05.062Z,65.14
2018-06-27T01:08:05.067Z,65.14
2018-06-27T01:09:05.048Z,65.50
2018-06-27T01:10:05.001Z,65.30
2018-06-27T01:11:04.975Z,65.14
2018-06-27T01:12:04.982Z,65.01
2018-06-27T01:13:04.931Z,65.69
2018-06-27T01:14:04.919Z,64.63
2018-06-27T01:15:04.893Z,66.07
2018-06-27T01:16:04.868Z,66.17
2018-06-27T01:17:04.864Z,66.07
2018-06-27T01:18:04.830Z,66.17
2018-06-27T01:19:04.833Z,65.78
2018-06-27T01:20:04.847Z,66.36
2018-06-27T01:21:04.789Z,67.13
2018-06-27T01:22:04.767Z,67.03
2018-06-27T01:23:04.721Z,68.09
2018-06-27T01:24:04.723Z,67.86
2018-06-27T01:25:04.673Z,68.06
2018-06-27T01:26:04.653Z,67.96
2018-06-27T01:27:04.658Z,67.96
2018-06-27T01:28:04.640Z,68.54
2018-06-27T01:29:04.590Z,69.31
2018-06-27T01:30:04.592Z,69.31
2018-06-27T01:31:04.547Z,69.60
2018-06-27T01:32:04.524Z,69.69
2018-06-27T01:33:04.501Z,69.37
2018-06-27T01:34:04.491Z,69.95
2018-06-27T01:35:04.467Z,70.14
2018-06-27T01:36:04.433Z,70.62
2018-06-27T01:37:04.415Z,71.19
2018-06-27T01:38:04.393Z,71.00
2018-06-27T01:39:04.371Z,71.29
2018-06-27T01:40:04.377Z,71.67
2018-06-27T01:41:04.355Z,71.87
2018-06-27T01:42:04.338Z,71.67
2018-06-27T01:43:04.287Z,71.29
2018-06-27T01:44:04.282Z,71.35
2018-06-27T01:45:04.240Z,72.02
2018-06-27T01:46:04.250Z,72.54
2018-06-27T01:47:04.200Z,72.41
2018-06-27T01:48:04.176Z,72.73
2018-06-27T01:49:04.151Z,72.54
2018-06-27T01:50:04.137Z,72.73
2018-06-27T01:51:04.133Z,72.34
2018-06-27T01:52:04.084Z,72.25
2018-06-27T01:53:04.061Z,72.54
2018-06-27T01:54:04.068Z,72.92
2018-06-27T01:55:04.048Z,72.73
2018-06-27T01:56:04.026Z,73.02
2018-06-27T01:57:03.976Z,72.44
2018-06-27T01:58:03.982Z,72.73
2018-06-27T01:59:03.989Z,73.02
2018-06-27T02:00:03.938Z,72.83
2018-06-27T02:01:03.892Z,72.64
2018-06-27T02:02:03.895Z,72.64
2018-06-27T02:03:03.876Z,72.64
2018-06-27T02:04:03.833Z,72.06
2018-06-27T02:05:03.828Z,72.25
2018-06-27T02:06:03.780Z,72.06
2018-06-27T02:07:03.768Z,72.54
2018-06-27T02:08:03.734Z,72.34
2018-06-27T02:09:03.710Z,71.87
2018-06-27T02:10:03.698Z,71.67
2018-06-27T02:11:03.699Z,71.39
2018-06-27T02:12:03.644Z,71.39
2018-06-27T02:13:03.626Z,70.52
2018-06-27T02:14:03.607Z,70.04
2018-06-27T02:15:03.610Z,70.37
2018-06-27T02:16:03.559Z,70.46
2018-06-27T02:17:03.551Z,69.60
2018-06-27T02:18:03.541Z,69.21
2018-06-27T02:19:03.517Z,68.92
2018-06-27T02:20:03.477Z,68.92
2018-06-27T02:21:03.477Z,69.31
2018-06-27T02:22:03.425Z,69.40
2018-06-27T02:23:03.404Z,69.60
2018-06-27T02:24:03.411Z,69.89
2018-06-27T02:25:03.371Z,70.65
2018-06-27T02:26:03.339Z,71.61
2018-06-27T02:27:03.347Z,72.29
2018-06-27T02:28:03.295Z,72.67
2018-06-27T02:29:03.283Z,73.54
2018-06-27T02:30:03.255Z,73.88
2018-06-27T02:31:03.232Z,74.40
2018-06-27T02:32:03.224Z,74.46
2018-06-27T02:33:03.211Z,74.85
2018-06-27T02:34:03.188Z,75.62
2018-06-27T02:35:03.153Z,76.39
2018-06-27T02:36:03.118Z,76.19
2018-06-27T02:37:03.098Z,77.78
2018-06-27T02:38:03.089Z,79.36
2018-06-27T02:39:03.077Z,79.55
2018-06-27T02:40:03.041Z,79.90
2018-06-27T02:41:03.012Z,80.66
2018-06-27T02:42:03.007Z,81.05
2018-06-27T02:43:02.964Z,80.47
2018-06-27T02:44:02.943Z,81.34
2018-06-27T02:45:02.927Z,80.47
2018-06-27T02:46:02.895Z,80.57
2018-06-27T02:47:02.902Z,80.47
2018-06-27T02:48:02.878Z,79.90
2018-06-27T02:49:02.857Z,79.32
2018-06-27T02:50:02.835Z,79.90
2018-06-27T02:51:02.815Z,80.96
2018-06-27T02:52:02.790Z,80.24
2018-06-27T02:53:02.772Z,79.57
2018-06-27T02:54:02.749Z,80.05
2018-06-27T02:55:02.698Z,80.15
2018-06-27T02:56:02.702Z,81.01
2018-06-27T02:57:02.679Z,81.84
2018-06-27T02:58:02.635Z,81.35
2018-06-27T02:59:02.619Z,79.96
2018-06-27T03:00:02.586Z,80.20
2018-06-27T03:01:02.564Z,80.30
2018-06-27T03:02:02.551Z,81.93
2018-06-27T03:03:02.522Z,82.70
2018-06-27T03:04:02.502Z,81.74
2018-06-27T03:05:02.475Z,81.54
2018-06-27T03:06:02.455Z,81.74
2018-06-27T03:07:02.430Z,81.93
2018-06-27T03:08:02.409Z,81.84
2018-06-27T03:09:02.410Z,82.41
2018-06-27T03:10:02.363Z,83.27
2018-06-27T03:11:02.369Z,83.08
2018-06-27T03:12:02.318Z,83.65
2018-06-27T03:13:02.297Z,82.79
2018-06-27T03:14:02.301Z,83.37
2018-06-27T03:15:02.254Z,83.18
2018-06-27T03:16:02.223Z,83.18
2018-06-27T03:17:02.204Z,83.47
2018-06-27T03:18:02.181Z,83.94
2018-06-27T03:19:02.173Z,83.85
2018-06-27T03:20:02.148Z,83.75
2018-06-27T03:21:02.112Z,83.75
2018-06-27T03:22:02.103Z,84.04
2018-06-27T03:23:02.082Z,84.19
2018-06-27T03:24:02.047Z,84.61
2018-06-27T03:25:02.036Z,84.81
2018-06-27T03:26:02.000Z,84.48
2018-06-27T03:27:01.981Z,84.91
2018-06-27T03:28:01.952Z,85.05
2018-06-27T03:29:01.958Z,85.25
2018-06-27T03:30:01.938Z,85.25
2018-06-27T03:31:01.884Z,85.44
2018-06-27T03:32:01.866Z,85.38
2018-06-27T03:33:01.857Z,85.53
2018-06-27T03:34:01.821Z,85.72
2018-06-27T03:35:01.798Z,85.10
2018-06-27T03:36:01.799Z,84.91
2018-06-27T03:37:01.777Z,85.38
2018-06-27T03:38:01.753Z,85.28
2018-06-27T03:39:01.706Z,85.58
2018-06-27T03:40:01.683Z,85.67
2018-06-27T03:41:01.664Z,85.48
2018-06-27T03:42:01.662Z,85.15
2018-06-27T03:43:01.613Z,85.72
2018-06-27T03:44:01.590Z,86.21
2018-06-27T03:45:01.572Z,86.21
2018-06-27T03:46:01.562Z,86.01
2018-06-27T03:47:01.525Z,85.48
2018-06-27T03:48:01.528Z,85.10
2018-06-27T03:49:01.477Z,85.48
2018-06-27T03:50:01.457Z,85.28
2018-06-27T03:51:01.444Z,85.48
2018-06-27T03:52:01.419Z,85.19
2018-06-27T03:53:01.388Z,85.38
2018-06-27T03:54:01.380Z,84.81
2018-06-27T03:55:01.345Z,84.71
2018-06-27T03:56:01.337Z,84.91
2018-06-27T03:57:01.318Z,85.28
2018-06-27T03:58:01.273Z,85.38
2018-06-27T03:59:01.297Z,85.00
2018-06-27T04:00:01.256Z,84.91
2018-06-27T04:01:01.205Z,85.67
2018-06-27T04:02:01.186Z,85.48
2018-06-27T04:03:01.164Z,85.77
2018-06-27T04:04:01.138Z,85.58
2018-06-27T04:05:01.140Z,85.48
2018-06-27T04:06:01.101Z,85.48
2018-06-27T04:07:01.073Z,85.28
2018-06-27T04:08:01.076Z,85.10
2018-06-27T04:09:01.036Z,85.48
2018-06-27T04:10:01.029Z,86.44
2018-06-27T04:11:01.005Z,85.77
2018-06-27T04:12:00.956Z,85.86
2018-06-27T04:13:34.420Z,86.01
2018-06-27T04:14:00.916Z,86.44
2018-06-27T04:15:00.899Z,86.40
2018-06-27T04:16:00.868Z,86.44
2018-06-27T04:17:00.842Z,86.68
2018-06-27T04:18:00.847Z,86.68
2018-06-27T04:19:00.823Z,86.68
2018-06-27T04:20:00.769Z,86.78
2018-06-27T04:21:00.752Z,86.68
2018-06-27T04:22:00.764Z,86.68
2018-06-27T04:23:00.732Z,86.97
2018-06-27T04:24:00.711Z,87.16
2018-06-27T04:25:00.669Z,87.93
2018-06-27T04:26:00.665Z,87.93
2018-06-27T04:27:00.641Z,88.02
2018-06-27T04:28:00.619Z,87.93
2018-06-27T04:29:00.595Z,88.12
2018-06-27T04:30:00.550Z,88.41
2018-06-27T04:31:00.553Z,88.22
2018-06-27T04:32:00.542Z,88.41
2018-06-27T04:33:00.478Z,88.60
2018-06-27T04:34:00.465Z,88.51
2018-06-27T04:35:00.432Z,87.93
2018-06-27T04:36:00.422Z,88.27
2018-06-27T04:37:00.395Z,88.41
2018-06-27T04:38:00.365Z,88.37
2018-06-27T04:39:00.370Z,88.56
2018-06-27T04:40:00.326Z,88.75
2018-06-27T04:41:00.297Z,88.98
2018-06-27T04:42:00.300Z,88.22
2018-06-27T04:43:00.256Z,88.22
2018-06-27T04:44:00.222Z,88.94
2018-06-27T04:45:00.246Z,88.94
2018-06-27T04:46:00.209Z,89.71
2018-06-27T04:47:00.183Z,89.04
2018-06-27T04:48:00.147Z,88.17
2018-06-27T04:49:00.139Z,88.37
2018-06-27T04:50:00.116Z,88.02
2018-06-27T04:51:00.080Z,87.35
2018-06-27T04:52:00.043Z,86.97
2018-06-27T04:53:00.047Z,87.45
2018-06-27T04:54:00.015Z,87.26
2018-06-27T04:55:00.071Z,87.35
2018-06-27T04:55:59.976Z,86.78
2018-06-27T04:56:59.953Z,87.35
2018-06-27T04:57:59.929Z,87.74
2018-06-27T04:58:59.876Z,87.74
2018-06-27T04:59:59.859Z,87.35
2018-06-27T05:00:59.859Z,87.55
2018-06-27T05:01:59.837Z,88.12
2018-06-27T05:02:59.817Z,87.93
2018-06-27T05:03:59.792Z,87.74
2018-06-27T05:04:59.741Z,87.93
2018-06-27T05:05:59.718Z,87.84
2018-06-27T05:06:59.721Z,87.64
2018-06-27T05:07:59.700Z,87.35
2018-06-27T05:08:59.677Z,87.55
2018-06-27T05:09:59.659Z,86.78
2018-06-27T05:10:59.605Z,87.26
2018-06-27T05:11:59.581Z,88.12
2018-06-27T05:12:59.582Z,87.93
2018-06-27T05:13:59.564Z,87.35
2018-06-27T05:14:59.513Z,87.93
2018-06-27T05:15:59.535Z,87.84
2018-06-27T05:16:59.492Z,87.70
2018-06-27T05:17:59.472Z,88.70
2018-06-27T05:18:59.417Z,87.88
2018-06-27T05:19:59.424Z,88.56
2018-06-27T05:20:59.387Z,88.27
2018-06-27T05:21:59.353Z,87.93
2018-06-27T05:22:59.321Z,88.27
2018-06-27T05:23:59.329Z,88.12
2018-06-27T05:24:59.295Z,87.84
2018-06-27T05:25:59.284Z,88.27
2018-06-27T05:26:59.263Z,88.27
2018-06-27T05:27:59.238Z,87.98
2018-06-27T05:28:59.189Z,88.17
2018-06-27T05:29:59.175Z,88.17
2018-06-27T05:30:59.144Z,88.08
2018-06-27T05:31:59.145Z,88.75
2018-06-27T05:32:59.094Z,88.65
2018-06-27T05:33:59.123Z,87.79
2018-06-27T05:34:59.053Z,87.79
2018-06-27T05:35:59.035Z,87.88
2018-06-27T05:36:59.035Z,87.60
2018-06-27T05:37:59.006Z,86.74
2018-06-27T05:38:58.958Z,86.93
2018-06-27T05:39:58.949Z,87.31
2018-06-27T05:40:58.940Z,88.37
2018-06-27T05:41:58.892Z,89.13
2018-06-27T05:42:58.866Z,88.65
2018-06-27T05:43:58.852Z,89.42
2018-06-27T05:44:58.844Z,88.46
2018-06-27T05:45:58.796Z,88.51
2018-06-27T05:46:58.785Z,87.98
2018-06-27T05:47:58.752Z,87.93
2018-06-27T05:48:58.735Z,87.26
2018-06-27T05:49:58.707Z,86.97
2018-06-27T05:50:58.679Z,86.58
2018-06-27T05:51:58.657Z,86.49
2018-06-27T05:52:58.636Z,86.30
2018-06-27T05:53:58.609Z,86.49
2018-06-27T05:54:58.617Z,86.11
2018-06-27T05:55:58.567Z,86.49
2018-06-27T05:56:58.567Z,86.68
2018-06-27T05:57:58.548Z,86.21
2018-06-27T05:58:58.496Z,86.30
2018-06-27T05:59:58.499Z,86.68
2018-06-27T06:00:58.451Z,86.40
2018-06-27T06:01:58.455Z,87.07
2018-06-27T06:02:58.431Z,86.58
2018-06-27T06:03:58.409Z,87.26
2018-06-27T06:04:58.383Z,87.16
2018-06-27T06:05:58.346Z,87.84
2018-06-27T06:06:58.337Z,87.74
2018-06-27T06:07:58.319Z,87.84
2018-06-27T06:08:58.291Z,87.26
2018-06-27T06:09:58.271Z,87.07
2018-06-27T06:10:58.217Z,87.45
2018-06-27T06:11:58.195Z,87.74
2018-06-27T06:12:58.198Z,88.12
2018-06-27T06:13:58.149Z,87.74
2018-06-27T06:14:58.135Z,87.84
2018-06-27T06:15:58.108Z,88.27
2018-06-27T06:16:58.081Z,88.27
2018-06-27T06:17:58.058Z,88.27
2018-06-27T06:18:58.035Z,88.17
2018-06-27T06:19:58.012Z,88.65
2018-06-27T06:20:57.991Z,88.84
2018-06-27T06:21:57.968Z,88.65
2018-06-27T06:22:57.946Z,89.23
2018-06-27T06:23:57.921Z,89.80
2018-06-27T06:24:57.921Z,89.80
2018-06-27T06:25:57.872Z,89.90
2018-06-27T06:26:57.857Z,90.19
2018-06-27T06:27:57.825Z,90.33
2018-06-27T06:28:57.829Z,90.14
2018-06-27T06:29:57.805Z,90.81
2018-06-27T06:30:57.759Z,91.39
2018-06-27T06:31:57.745Z,91.29
2018-06-27T06:32:57.737Z,91.29
2018-06-27T06:33:57.688Z,91.19
2018-06-27T06:34:57.665Z,91.19
2018-06-27T06:35:57.641Z,91.49
2018-06-27T06:36:57.618Z,92.06
2018-06-27T06:37:57.595Z,91.86
2018-06-27T06:38:57.577Z,91.96
2018-06-27T06:39:57.574Z,92.44
2018-06-27T06:40:57.527Z,92.54
2018-06-27T06:41:57.515Z,92.92
2018-06-27T06:42:57.480Z,92.82
2018-06-27T06:43:57.458Z,92.92
2018-06-27T06:44:57.461Z,92.92
2018-06-27T06:45:57.414Z,92.73
2018-06-27T06:46:57.412Z,92.73
2018-06-27T06:47:57.393Z,92.82
2018-06-27T06:48:57.343Z,92.82
2018-06-27T06:49:57.343Z,92.92
2018-06-27T06:50:57.319Z,93.49
2018-06-27T06:51:57.313Z,93.69
2018-06-27T06:52:57.248Z,93.78
2018-06-27T06:53:57.222Z,93.40
2018-06-27T06:54:57.200Z,94.07
2018-06-27T06:55:57.190Z,93.98
2018-06-27T06:56:57.155Z,94.64
2018-06-27T06:57:57.161Z,94.55
2018-06-27T06:58:57.109Z,94.55
2018-06-27T06:59:57.108Z,95.89
2018-06-27T07:00:57.060Z,96.61
2018-06-27T07:01:57.064Z,97.33
2018-06-27T07:02:57.014Z,97.80
2018-06-27T07:03:56.993Z,98.00
2018-06-27T07:04:57.049Z,97.66
2018-06-27T07:05:56.973Z,97.75
2018-06-27T07:06:56.923Z,98.19
2018-06-27T07:07:56.921Z,98.43
2018-06-27T07:08:56.875Z,98.19
2018-06-27T07:09:56.858Z,98.43
2018-06-27T07:10:56.882Z,98.33
2018-06-27T07:11:56.813Z,98.14
2018-06-27T07:12:56.788Z,99.38
2018-06-27T07:13:56.758Z,99.00
2018-06-27T07:14:56.740Z,99.38
2018-06-27T07:15:56.724Z,99.19
2018-06-27T07:16:56.710Z,99.99
2018-06-27T07:17:56.675Z,99.67
2018-06-27T07:18:56.651Z,99.87
2018-06-27T07:19:56.617Z,99.10
2018-06-27T07:20:56.591Z,99.38
2018-06-27T07:21:56.569Z,99.67
2018-06-27T07:22:56.548Z,99.48
2018-06-27T07:23:56.529Z,99.10
2018-06-27T07:24:56.515Z,99.19
2018-06-27T07:25:56.477Z,99.87
2018-06-27T07:26:56.455Z,99.99
2018-06-27T07:27:56.426Z,99.99
2018-06-27T07:28:56.430Z,99.99
2018-06-27T07:29:56.414Z,99.99
2018-06-27T07:30:56.383Z,99.99
2018-06-27T07:31:56.351Z,99.99
2018-06-27T07:32:56.336Z,99.99
2018-06-27T07:33:56.288Z,99.99
2018-06-27T07:34:56.291Z,99.99
2018-06-27T07:35:56.281Z,99.99
2018-06-27T07:36:56.217Z,99.99
2018-06-27T07:37:56.208Z,99.99
2018-06-27T07:38:56.186Z,99.99
2018-06-27T07:39:56.147Z,99.99
2018-06-27T07:40:56.131Z,99.99
2018-06-27T07:41:56.131Z,99.99
2018-06-27T07:42:56.101Z,99.99
2018-06-27T07:43:56.055Z,99.99
2018-06-27T07:44:56.026Z,99.99
2018-06-27T07:45:56.008Z,99.99
2018-06-27T07:46:56.009Z,99.99
2018-06-27T07:47:55.961Z,99.99
2018-06-27T07:48:55.963Z,99.99
2018-06-27T07:49:55.974Z,99.99
2018-06-27T07:50:55.915Z,99.99
2018-06-27T07:51:55.863Z,99.99
2018-06-27T07:52:55.840Z,99.99
2018-06-27T07:53:55.844Z,99.99
2018-06-27T07:54:55.791Z,99.99
2018-06-27T07:55:55.770Z,99.99
2018-06-27T07:56:55.772Z,99.99
2018-06-27T07:57:55.748Z,99.99
2018-06-27T07:58:55.703Z,99.99
2018-06-27T07:59:55.685Z,99.99
2018-06-27T08:00:55.663Z,99.99
2018-06-27T08:01:55.656Z,99.99
2018-06-27T08:02:55.630Z,99.99
2018-06-27T08:03:55.590Z,99.99
2018-06-27T08:04:55.555Z,99.99
2018-06-27T08:05:55.568Z,99.99
2018-06-27T08:06:55.513Z,99.99
2018-06-27T08:07:55.511Z,99.99
2018-06-27T08:08:55.490Z,99.99
2018-06-27T08:09:55.449Z,99.99
2018-06-27T08:10:55.427Z,99.48
2018-06-27T08:11:55.393Z,99.29
2018-06-27T08:12:55.378Z,99.29
2018-06-27T08:13:55.347Z,98.71
2018-06-27T08:14:55.345Z,99.10
2018-06-27T08:15:55.297Z,98.71
2018-06-27T08:16:55.277Z,99.10
2018-06-27T08:17:55.309Z,98.62
2018-06-27T08:18:55.256Z,98.52
2018-06-27T08:19:55.229Z,98.91
2018-06-27T08:20:55.204Z,98.52
2018-06-27T08:21:55.157Z,99.10
2018-06-27T08:22:55.144Z,98.71
2018-06-27T08:23:55.109Z,99.00
2018-06-27T08:24:55.108Z,98.81
2018-06-27T08:25:55.129Z,98.24
2018-06-27T08:26:55.066Z,98.43
2018-06-27T08:27:55.012Z,98.62
2018-06-27T08:28:54.991Z,98.52
2018-06-27T08:29:54.962Z,98.14
2018-06-27T08:30:54.942Z,98.33
2018-06-27T08:31:54.914Z,97.95
2018-06-27T08:32:54.922Z,97.66
2018-06-27T08:33:54.872Z,97.56
2018-06-27T08:34:54.858Z,97.75
2018-06-27T08:35:54.825Z,97.95
2018-06-27T08:36:54.825Z,97.75
2018-06-27T08:37:54.780Z,98.05
2018-06-27T08:38:54.754Z,97.75
2018-06-27T08:39:54.754Z,98.33
2018-06-27T08:40:54.707Z,98.24
2018-06-27T08:41:54.696Z,97.75
2018-06-27T08:42:54.658Z,97.75
2018-06-27T08:43:54.637Z,97.75
2018-06-27T08:44:54.639Z,98.33
2018-06-27T08:45:54.588Z,97.85
2018-06-27T08:46:54.561Z,98.14
2018-06-27T08:47:54.543Z,98.05
2018-06-27T08:48:54.543Z,98.14
2018-06-27T08:49:54.509Z,98.05
2018-06-27T08:50:54.465Z,97.75
2018-06-27T08:51:54.472Z,97.85
2018-06-27T08:52:54.424Z,97.56
2018-06-27T08:53:54.399Z,97.38
2018-06-27T08:54:54.404Z,97.38
2018-06-27T08:55:54.365Z,97.56
2018-06-27T08:56:54.332Z,97.75
2018-06-27T08:57:54.307Z,97.38
2018-06-27T08:58:54.450Z,97.75
2018-06-27T08:59:54.261Z,97.85
2018-06-27T09:00:54.263Z,98.52
2018-06-27T09:01:54.229Z,98.33
2018-06-27T09:02:54.217Z,97.47
2018-06-27T09:03:54.188Z,97.47
2018-06-27T09:04:54.166Z,97.90
2018-06-27T09:05:54.116Z,98.33
2018-06-27T09:06:54.097Z,98.43
2018-06-27T09:07:54.096Z,99.00
2018-06-27T09:08:54.072Z,98.71
2018-06-27T09:09:54.048Z,98.57
2018-06-27T09:10:54.024Z,98.47
2018-06-27T09:11:53.984Z,98.66
2018-06-27T09:12:53.976Z,98.66
2018-06-27T09:13:53.927Z,99.05
2018-06-27T09:14:53.930Z,98.28
2018-06-27T09:15:53.876Z,98.66
2018-06-27T09:16:53.883Z,98.57
2018-06-27T09:17:53.848Z,99.15
2018-06-27T09:18:53.827Z,99.15
2018-06-27T09:19:53.785Z,99.05
2018-06-27T09:20:53.789Z,98.86
2018-06-27T09:21:53.766Z,99.62
2018-06-27T09:22:53.743Z,99.72
2018-06-27T09:23:53.701Z,99.99
2018-06-27T09:24:53.664Z,99.99
2018-06-27T09:25:53.657Z,99.99
2018-06-27T09:26:53.629Z,99.99
2018-06-27T09:27:53.593Z,99.99
2018-06-27T09:28:53.581Z,99.99
2018-06-27T09:29:53.551Z,99.99
2018-06-27T09:30:53.539Z,99.99
2018-06-27T09:31:53.520Z,99.99
2018-06-27T09:32:53.478Z,99.99
2018-06-27T09:33:53.456Z,99.52
2018-06-27T09:34:53.432Z,99.72
2018-06-27T09:35:53.434Z,99.43
2018-06-27T09:36:53.383Z,99.77
2018-06-27T09:37:53.361Z,99.91
2018-06-27T09:38:53.350Z,99.48
2018-06-27T09:39:53.314Z,99.96
2018-06-27T09:40:53.288Z,99.77
2018-06-27T09:41:53.355Z,99.91
2018-06-27T09:42:53.268Z,99.99
2018-06-27T09:43:53.218Z,99.99
2018-06-27T09:44:53.206Z,99.99
2018-06-27T09:45:53.199Z,99.99
2018-06-27T09:46:53.148Z,99.99
2018-06-27T09:47:53.118Z,99.99
2018-06-27T09:48:53.111Z,99.99
2018-06-27T09:49:53.080Z,99.99
2018-06-27T09:50:53.081Z,99.99
2018-06-27T09:51:53.036Z,99.99
2018-06-27T09:52:53.033Z,99.99
2018-06-27T09:53:52.982Z,99.99
2018-06-27T09:54:52.961Z,99.99
2018-06-27T09:55:52.934Z,99.99
2018-06-27T09:56:52.992Z,99.99
2018-06-27T09:57:52.914Z,99.99
2018-06-27T09:58:52.868Z,99.99
2018-06-27T09:59:52.839Z,99.99
2018-06-27T10:00:52.832Z,99.99
2018-06-27T10:01:52.817Z,99.67
2018-06-27T10:02:52.796Z,99.48
2018-06-27T10:03:52.775Z,99.38
2018-06-27T10:04:52.719Z,98.86
2018-06-27T10:05:52.699Z,98.19
2018-06-27T10:06:52.678Z,98.19
2018-06-27T10:07:52.648Z,98.38
2018-06-27T10:08:52.624Z,97.90
2018-06-27T10:09:52.618Z,97.42
2018-06-27T10:10:52.599Z,97.52
2018-06-27T10:11:52.560Z,97.33
2018-06-27T10:12:52.535Z,97.14
2018-06-27T10:13:52.515Z,96.51
2018-06-27T10:14:52.517Z,96.22
2018-06-27T10:15:52.479Z,96.13
2018-06-27T10:16:52.520Z,95.26
2018-06-27T10:17:52.420Z,94.98
2018-06-27T10:18:52.406Z,94.40
2018-06-27T10:19:52.372Z,94.69
2018-06-27T10:20:52.352Z,93.97
2018-06-27T10:21:52.330Z,93.78
2018-06-27T10:22:52.331Z,93.88
2018-06-27T10:23:52.283Z,93.49
2018-06-27T10:24:52.274Z,93.11
2018-06-27T10:25:52.265Z,93.01
2018-06-27T10:26:52.240Z,92.82
2018-06-27T10:27:52.192Z,92.05
2018-06-27T10:28:52.196Z,92.34
2018-06-27T10:29:52.150Z,92.24
2018-06-27T10:30:52.150Z,92.24
2018-06-27T10:31:52.115Z,91.96
2018-06-27T10:32:52.088Z,92.24
2018-06-27T10:33:52.086Z,92.24
2018-06-27T10:34:52.063Z,92.44
2018-06-27T10:35:52.016Z,92.34
2018-06-27T10:36:52.021Z,92.44
2018-06-27T10:37:51.997Z,92.15
2018-06-27T10:38:51.972Z,92.24
2018-06-27T10:39:51.921Z,92.15
2018-06-27T10:40:51.904Z,92.24
2018-06-27T10:41:51.912Z,92.44
2018-06-27T10:42:51.884Z,92.15
2018-06-27T10:43:51.832Z,90.85
2018-06-27T10:44:51.817Z,90.37
2018-06-27T10:45:51.818Z,91.14
2018-06-27T10:46:51.772Z,91.81
2018-06-27T10:47:51.776Z,91.81
2018-06-27T10:48:51.750Z,91.91
2018-06-27T10:49:51.731Z,91.52
2018-06-27T10:50:51.684Z,90.99
2018-06-27T10:51:51.685Z,90.99
2018-06-27T10:52:51.644Z,90.52
2018-06-27T10:53:51.617Z,90.03
2018-06-27T10:54:51.607Z,89.69
2018-06-27T10:55:51.581Z,89.60
2018-06-27T10:56:51.568Z,89.02
2018-06-27T10:57:51.539Z,89.12
2018-06-27T10:58:51.519Z,89.02
2018-06-27T10:59:51.502Z,88.35
2018-06-27T11:00:51.467Z,88.20
2018-06-27T11:01:51.460Z,87.92
2018-06-27T11:02:51.438Z,87.72
2018-06-27T11:03:51.430Z,87.72
2018-06-27T11:04:51.387Z,87.53
2018-06-27T11:05:51.390Z,86.95
2018-06-27T11:06:51.372Z,87.92
2018-06-27T11:07:51.337Z,87.53
2018-06-27T11:08:51.317Z,87.72
2018-06-27T11:09:51.283Z,86.95
2018-06-27T11:10:51.289Z,86.42
2018-06-27T11:11:51.241Z,84.50
2018-06-27T11:12:51.223Z,84.44
2018-06-27T11:13:51.226Z,84.01
2018-06-27T11:14:51.206Z,84.84
2018-06-27T11:15:51.169Z,85.71
2018-06-27T11:16:51.164Z,86.28
2018-06-27T11:17:51.137Z,87.19
2018-06-27T11:18:51.102Z,88.35
2018-06-27T11:19:51.105Z,88.40
2018-06-27T11:20:51.088Z,88.49
2018-06-27T11:21:51.041Z,89.65
2018-06-27T11:22:51.020Z,89.94
2018-06-27T11:23:50.998Z,90.90
2018-06-27T11:24:51.003Z,90.13
2018-06-27T11:25:50.954Z,90.32
2018-06-27T11:26:50.942Z,90.52
2018-06-27T11:27:50.928Z,90.03
2018-06-27T11:28:50.897Z,89.94
2018-06-27T11:29:50.902Z,89.75
2018-06-27T11:30:51.067Z,89.17
2018-06-27T11:31:50.981Z,89.02
2018-06-27T11:32:50.848Z,88.79
2018-06-27T11:33:50.801Z,89.40
2018-06-27T11:34:50.780Z,88.93
2018-06-27T11:35:50.756Z,88.54
2018-06-27T11:36:50.735Z,88.35
2018-06-27T11:37:50.722Z,88.35
2018-06-27T11:38:50.862Z,87.87
2018-06-27T11:39:50.658Z,88.45
2018-06-27T11:40:50.640Z,88.16
2018-06-27T11:41:50.653Z,88.16
2018-06-27T11:42:50.602Z,88.25
2018-06-27T11:43:50.584Z,87.87
2018-06-27T11:44:50.591Z,87.58
2018-06-27T11:45:50.548Z,87.49
2018-06-27T11:46:50.546Z,87.05
2018-06-27T11:47:50.511Z,86.38
2018-06-27T11:48:50.479Z,85.99
2018-06-27T11:49:50.457Z,85.36
2018-06-27T11:50:50.433Z,83.67
2018-06-27T11:51:50.416Z,82.27
2018-06-27T11:52:50.395Z,80.83
2018-06-27T11:53:50.399Z,81.46
2018-06-27T11:54:50.359Z,82.08
2018-06-27T11:55:50.357Z,81.50
2018-06-27T11:56:50.341Z,81.21
2018-06-27T11:57:50.319Z,81.21
2018-06-27T11:58:50.273Z,80.10
2018-06-27T11:59:50.262Z,78.79
2018-06-27T12:00:50.265Z,77.31
2018-06-27T12:01:50.217Z,77.34
2018-06-27T12:02:50.225Z,77.83
2018-06-27T12:03:50.204Z,77.63
2018-06-27T12:04:50.174Z,78.08
2018-06-27T12:05:50.141Z,79.19
2018-06-27T12:06:50.151Z,79.96
2018-06-27T12:07:50.105Z,81.07
2018-06-27T12:08:50.085Z,82.04
2018-06-27T12:09:50.065Z,81.21
2018-06-27T12:10:50.049Z,81.21
2018-06-27T12:11:50.053Z,80.35
2018-06-27T12:12:50.018Z,80.25
2018-06-27T12:13:50.018Z,80.35
2018-06-27T12:14:50.004Z,79.77
2018-06-27T12:15:49.985Z,79.71
2018-06-27T12:16:49.968Z,79.96
2018-06-27T12:17:50.190Z,81.02
2018-06-27T12:18:49.911Z,81.21
2018-06-27T12:19:49.897Z,81.50
2018-06-27T12:20:49.874Z,81.12
2018-06-27T12:21:49.846Z,81.02
2018-06-27T12:22:49.830Z,81.65
2018-06-27T12:23:49.850Z,82.04
2018-06-27T12:24:49.791Z,82.14
2018-06-27T12:25:49.774Z,81.50
2018-06-27T12:26:49.781Z,80.35
2018-06-27T12:27:49.734Z,80.69
2018-06-27T12:28:49.732Z,80.02
2018-06-27T12:29:49.723Z,81.21
2018-06-27T12:30:49.685Z,81.30
2018-06-27T12:31:49.673Z,79.61
2018-06-27T12:32:49.669Z,80.00
2018-06-27T12:33:49.651Z,79.71
2018-06-27T12:34:49.622Z,80.25
2018-06-27T12:35:49.589Z,80.29
2018-06-27T12:36:49.571Z,79.27
2018-06-27T12:37:49.583Z,78.88
2018-06-27T12:38:49.568Z,77.86
2018-06-27T12:39:49.520Z,76.90
2018-06-27T12:40:49.506Z,77.92
2018-06-27T12:41:49.512Z,78.31
2018-06-27T12:42:49.492Z,78.50
2018-06-27T12:43:49.450Z,77.73
2018-06-27T12:44:49.425Z,77.76
2018-06-27T12:45:49.441Z,76.71
2018-06-27T12:46:49.422Z,76.93
2018-06-27T12:47:49.379Z,76.90
2018-06-27T12:48:49.364Z,77.38
2018-06-27T12:49:49.356Z,77.76
2018-06-27T12:50:49.325Z,77.73
2018-06-27T12:51:49.326Z,78.21